Time;durP1;ratioP1;P1;durP2;ratioP2;P2;SDS_P1;SDS_P2;PMS_P1;PMS_P2;Temp;Humidity;BMP_temperature;BMP_pressure;BME280_temperature;BME280_humidity;BME280_pressure;Samples;Min_cycle;Max_cycle;Signal;HPM_P1;HPM_P2
2023/05/23 00:01:25;;;;;;;10.93;6.05;;;;;;;;;;5064380;28;20056;-54
2023/05/23 00:03:54;;;;;;;12.35;6.68;;;;;;;;;;5051970;28;20084;-52
2023/05/23 00:06:21;;;;;;;8.80;5.80;;;;;;;;;;5061429;28;20423;-55
2023/05/23 00:08:48;;;;;;;13.75;5.55;;;;;;;;;;5062906;28;20049;-56
2023/05/23 00:11:14;;;;;;;13.70;6.47;;;;;;;;;;5061374;28;20057;-53
2023/05/23 00:13:41;;;;;;;12.27;5.65;;;;;;;;;;5063556;28;20376;-53
2023/05/23 00:16:08;;;;;;;9.32;6.53;;;;;;;;;;5063443;28;20126;-52
2023/05/23 00:18:41;;;;;;;10.13;5.22;;;;;;;;;;5064353;28;20149;-53
2023/05/23 00:21:08;;;;;;;10.13;5.78;;;;;;;;;;5056673;28;20060;-53
2023/05/23 00:23:35;;;;;;;9.68;5.07;;;;;;;;;;5063276;28;20527;-51
2023/05/23 00:26:01;;;;;;;7.93;5.45;;;;;;;;;;5064619;28;20543;-56
2023/05/23 00:28:28;;;;;;;7.93;4.90;;;;;;;;;;5065135;28;20499;-57
2023/05/23 00:30:54;;;;;;;8.65;5.68;;;;;;;;;;5065033;28;20067;-56
2023/05/23 00:33:20;;;;;;;11.65;5.45;;;;;;;;;;5053071;28;20061;-56
2023/05/23 00:35:48;;;;;;;11.57;5.45;;;;;;;;;;5044884;28;20065;-54
2023/05/23 00:38:14;;;;;;;11.07;5.80;;;;;;;;;;5043823;28;20053;-53
2023/05/23 00:40:41;;;;;;;8.75;5.22;;;;;;;;;;5043840;28;20521;-55
2023/05/23 00:43:07;;;;;;;10.27;5.30;;;;;;;;;;5060576;28;20057;-54
2023/05/23 00:45:33;;;;;;;5.55;4.05;;;;;;;;;;5064168;28;20049;-56
2023/05/23 00:48:00;;;;;;;5.32;4.30;;;;;;;;;;5064310;28;20052;-55
2023/05/23 00:50:30;;;;;;;6.35;3.90;;;;;;;;;;5052021;28;20061;-53
2023/05/23 00:52:57;;;;;;;7.55;4.63;;;;;;;;;;5044345;28;20046;-52
2023/05/23 00:55:24;;;;;;;7.82;4.25;;;;;;;;;;5044429;28;20053;-55
2023/05/23 00:57:54;;;;;;;5.65;4.25;;;;;;;;;;5044026;28;20053;-51
2023/05/23 01:00:20;;;;;;;8.13;4.45;;;;;;;;;;5044169;28;20050;-55
2023/05/23 01:02:50;;;;;;;7.80;4.00;;;;;;;;;;5043745;28;20061;-55
2023/05/23 01:05:17;;;;;;;6.68;4.10;;;;;;;;;;5044430;28;20097;-56
2023/05/23 01:07:44;;;;;;;11.30;4.68;;;;;;;;;;5045005;28;20053;-57
2023/05/23 01:10:11;;;;;;;8.52;3.75;;;;;;;;;;5043960;28;20538;-59
2023/05/23 01:12:57;;;;;;;10.02;3.83;;;;;;;;;;5044332;28;20561;-56
2023/05/23 01:15:34;;;;;;;3.75;3.25;;;;;;;;;;5044573;28;20087;-56
2023/05/23 01:18:14;;;;;;;4.95;3.95;;;;;;;;;;5062027;28;20053;-57
2023/05/23 01:20:54;;;;;;;10.13;4.45;;;;;;;;;;5063689;28;20052;-57
2023/05/23 01:23:27;;;;;;;7.13;4.20;;;;;;;;;;5060753;28;20057;-56
2023/05/23 01:26:13;;;;;;;6.60;3.85;;;;;;;;;;5043753;28;20072;-56
2023/05/23 01:28:44;;;;;;;7.97;4.28;;;;;;;;;;5058964;28;20103;-54
2023/05/23 01:31:11;;;;;;;6.05;3.53;;;;;;;;;;5049550;28;20058;-56
2023/05/23 01:33:39;;;;;;;6.10;3.78;;;;;;;;;;5043613;28;20103;-57
2023/05/23 01:36:06;;;;;;;7.03;3.97;;;;;;;;;;5054944;28;20080;-57
2023/05/23 01:38:33;;;;;;;5.18;3.58;;;;;;;;;;5054788;28;20491;-52
2023/05/23 01:40:59;;;;;;;6.05;3.88;;;;;;;;;;5061611;28;20071;-57
2023/05/23 01:43:26;;;;;;;8.77;3.95;;;;;;;;;;5060925;28;20052;-57
2023/05/23 01:45:53;;;;;;;5.57;3.78;;;;;;;;;;5055816;28;20049;-56
2023/05/23 01:48:20;;;;;;;10.02;4.32;;;;;;;;;;5062954;28;20365;-56
2023/05/23 01:50:46;;;;;;;7.95;4.30;;;;;;;;;;5064227;28;20115;-57
2023/05/23 01:53:15;;;;;;;7.60;3.85;;;;;;;;;;5063401;28;20049;-57
2023/05/23 01:55:41;;;;;;;6.70;3.45;;;;;;;;;;5063330;28;20572;-57
2023/05/23 01:58:08;;;;;;;17.25;4.47;;;;;;;;;;5052632;28;20057;-56
2023/05/23 02:00:34;;;;;;;8.27;4.35;;;;;;;;;;5043649;28;20049;-56
2023/05/23 02:03:01;;;;;;;7.00;3.88;;;;;;;;;;5042945;28;20533;-55
2023/05/23 02:05:28;;;;;;;6.50;3.10;;;;;;;;;;5043064;28;20136;-58
2023/05/23 02:07:54;;;;;;;7.97;3.50;;;;;;;;;;5054351;28;20140;-55
2023/05/23 02:10:20;;;;;;;5.00;3.35;;;;;;;;;;5063535;28;20053;-57
2023/05/23 02:12:47;;;;;;;8.07;3.78;;;;;;;;;;5063001;28;20057;-57
2023/05/23 02:15:13;;;;;;;8.23;4.18;;;;;;;;;;5062392;28;20063;-57
2023/05/23 02:17:40;;;;;;;7.72;3.95;;;;;;;;;;5064933;28;20103;-57
2023/05/23 02:20:07;;;;;;;6.97;3.28;;;;;;;;;;5066862;28;20074;-57
2023/05/23 02:22:33;;;;;;;6.95;3.33;;;;;;;;;;5066025;28;20052;-58
2023/05/23 02:24:59;;;;;;;7.30;5.05;;;;;;;;;;5059128;28;20067;-57
2023/05/23 02:27:26;;;;;;;9.13;3.83;;;;;;;;;;5067018;28;20057;-57
2023/05/23 02:29:53;;;;;;;6.47;3.38;;;;;;;;;;5070803;28;20139;-58
2023/05/23 02:32:19;;;;;;;6.30;3.58;;;;;;;;;;5067301;28;20045;-57
2023/05/23 02:34:45;;;;;;;6.82;3.85;;;;;;;;;;5062064;28;20668;-57
2023/05/23 02:37:12;;;;;;;6.35;3.50;;;;;;;;;;5053099;28;20052;-56
2023/05/23 02:39:39;;;;;;;6.43;3.78;;;;;;;;;;5066646;28;20115;-56
2023/05/23 02:42:06;;;;;;;7.07;3.70;;;;;;;;;;5065666;28;20060;-57
2023/05/23 02:44:33;;;;;;;7.60;4.22;;;;;;;;;;5066685;28;20077;-57
2023/05/23 02:46:59;;;;;;;6.05;3.45;;;;;;;;;;5062618;28;20057;-55
2023/05/23 02:49:26;;;;;;;8.02;3.60;;;;;;;;;;5046132;28;20064;-58
2023/05/23 02:51:52;;;;;;;11.23;3.50;;;;;;;;;;5053918;28;20053;-58
2023/05/23 02:54:19;;;;;;;10.30;4.07;;;;;;;;;;5065357;28;20425;-56
2023/05/23 02:56:45;;;;;;;8.18;4.70;;;;;;;;;;5064608;28;20561;-58
2023/05/23 02:59:12;;;;;;;7.18;4.35;;;;;;;;;;5066191;28;20586;-56
2023/05/23 03:01:38;;;;;;;9.75;4.20;;;;;;;;;;5065027;28;20053;-58
2023/05/23 03:04:05;;;;;;;6.88;3.83;;;;;;;;;;5065806;28;20869;-58
2023/05/23 03:06:32;;;;;;;8.70;3.78;;;;;;;;;;5067137;28;20076;-57
2023/05/23 03:08:59;;;;;;;10.00;4.47;;;;;;;;;;5065870;28;20144;-57
2023/05/23 03:11:26;;;;;;;14.32;4.55;;;;;;;;;;5066495;28;20053;-56
2023/05/23 03:13:52;;;;;;;9.75;4.55;;;;;;;;;;5066481;28;20132;-58
2023/05/23 03:16:19;;;;;;;13.57;5.00;;;;;;;;;;5066426;28;20141;-58
2023/05/23 03:18:45;;;;;;;10.23;4.30;;;;;;;;;;5065747;28;20111;-58
2023/05/23 03:21:11;;;;;;;9.48;4.68;;;;;;;;;;5065631;28;20057;-58
2023/05/23 03:23:38;;;;;;;6.20;3.78;;;;;;;;;;5051787;28;20894;-57
2023/05/23 03:26:05;;;;;;;8.32;4.43;;;;;;;;;;5045581;28;20081;-57
2023/05/23 03:28:31;;;;;;;9.95;4.07;;;;;;;;;;5044674;28;20541;-56
2023/05/23 03:30:58;;;;;;;12.45;4.55;;;;;;;;;;5045054;28;20049;-55
2023/05/23 03:33:24;;;;;;;9.05;5.43;;;;;;;;;;5045532;28;20574;-57
2023/05/23 03:35:51;;;;;;;11.63;4.63;;;;;;;;;;5045623;28;20053;-56
2023/05/23 03:38:18;;;;;;;7.57;4.78;;;;;;;;;;5045564;28;20489;-56
2023/05/23 03:40:44;;;;;;;11.07;5.15;;;;;;;;;;5045187;28;20061;-58
2023/05/23 03:43:11;;;;;;;10.15;4.40;;;;;;;;;;5045400;28;20064;-53
2023/05/23 03:45:37;;;;;;;13.38;5.28;;;;;;;;;;5045663;28;20133;-57
2023/05/23 03:48:04;;;;;;;15.43;5.10;;;;;;;;;;5045546;28;20053;-58
2023/05/23 03:50:30;;;;;;;10.88;4.82;;;;;;;;;;5045802;28;20145;-58
2023/05/23 03:52:57;;;;;;;7.60;5.07;;;;;;;;;;5045732;28;20561;-56
2023/05/23 03:55:24;;;;;;;6.95;4.28;;;;;;;;;;5045208;28;20054;-55
2023/05/23 03:57:53;;;;;;;10.75;5.15;;;;;;;;;;5054945;28;20045;-57
2023/05/23 04:00:19;;;;;;;7.35;4.40;;;;;;;;;;5065541;28;20053;-58
2023/05/23 04:02:46;;;;;;;15.20;4.80;;;;;;;;;;5065105;28;20445;-56
2023/05/23 04:05:12;;;;;;;8.93;4.18;;;;;;;;;;5064896;28;20073;-58
2023/05/23 04:07:40;;;;;;;7.00;4.13;;;;;;;;;;5065485;28;20049;-58
2023/05/23 04:10:07;;;;;;;12.05;3.90;;;;;;;;;;5064464;28;20416;-55
2023/05/23 04:12:34;;;;;;;13.88;4.32;;;;;;;;;;5065095;28;20103;-57
2023/05/23 04:15:01;;;;;;;8.80;3.40;;;;;;;;;;5047543;28;20152;-58
2023/05/23 04:17:29;;;;;;;19.23;4.82;;;;;;;;;;5045135;28;20119;-56
2023/05/23 04:19:56;;;;;;;6.78;3.85;;;;;;;;;;5044461;28;20519;-57
2023/05/23 04:22:22;;;;;;;10.35;3.55;;;;;;;;;;5045302;28;20053;-56
2023/05/23 04:24:49;;;;;;;8.57;3.42;;;;;;;;;;5054073;28;20148;-58
2023/05/23 04:27:15;;;;;;;6.75;3.78;;;;;;;;;;5064403;28;20052;-54
2023/05/23 04:29:43;;;;;;;9.57;3.42;;;;;;;;;;5065486;28;20057;-58
2023/05/23 04:32:10;;;;;;;15.50;3.75;;;;;;;;;;5064072;28;20570;-57
2023/05/23 04:34:36;;;;;;;6.05;3.00;;;;;;;;;;5058376;28;20448;-55
2023/05/23 04:37:03;;;;;;;5.53;2.90;;;;;;;;;;5064442;28;21043;-57
2023/05/23 04:39:29;;;;;;;3.85;2.55;;;;;;;;;;5062918;28;20132;-58
2023/05/23 04:41:56;;;;;;;6.65;2.63;;;;;;;;;;5063023;28;20520;-55
2023/05/23 04:44:23;;;;;;;8.98;2.90;;;;;;;;;;5063498;28;20127;-58
2023/05/23 04:46:49;;;;;;;15.02;2.90;;;;;;;;;;5064547;28;20502;-56
2023/05/23 04:49:15;;;;;;;5.82;2.70;;;;;;;;;;5049053;28;20049;-58
2023/05/23 04:51:42;;;;;;;6.60;3.13;;;;;;;;;;5064354;28;20051;-57
2023/05/23 04:54:08;;;;;;;8.52;2.70;;;;;;;;;;5064489;28;20518;-57
2023/05/23 04:56:35;;;;;;;8.73;2.97;;;;;;;;;;5063938;28;20053;-58
2023/05/23 04:59:01;;;;;;;4.55;2.90;;;;;;;;;;5064608;28;20858;-55
2023/05/23 05:01:30;;;;;;;6.03;2.83;;;;;;;;;;5064452;28;20057;-58
2023/05/23 05:03:56;;;;;;;9.48;3.05;;;;;;;;;;5064067;28;20596;-57
2023/05/23 05:06:23;;;;;;;7.82;2.63;;;;;;;;;;5063646;28;20106;-54
2023/05/23 05:08:50;;;;;;;5.72;2.50;;;;;;;;;;5064193;28;20536;-58
2023/05/23 05:11:16;;;;;;;7.60;3.17;;;;;;;;;;5064902;28;20053;-58
2023/05/23 05:13:43;;;;;;;5.10;2.90;;;;;;;;;;5064752;28;20064;-57
2023/05/23 05:16:09;;;;;;;4.70;2.78;;;;;;;;;;5063138;28;20577;-56
2023/05/23 05:18:37;;;;;;;8.55;2.50;;;;;;;;;;5063889;28;20521;-52
2023/05/23 05:21:05;;;;;;;3.63;2.22;;;;;;;;;;5063449;28;20056;-58
2023/05/23 05:23:33;;;;;;;9.40;3.28;;;;;;;;;;5063617;28;20211;-58
2023/05/23 05:25:59;;;;;;;7.43;3.30;;;;;;;;;;5063550;28;20053;-58
2023/05/23 05:28:26;;;;;;;13.55;3.15;;;;;;;;;;5062926;28;20542;-56
2023/05/23 05:30:54;;;;;;;6.53;2.72;;;;;;;;;;5064022;28;20087;-58
2023/05/23 05:33:23;;;;;;;9.00;3.20;;;;;;;;;;5062753;28;20148;-58
2023/05/23 05:35:50;;;;;;;10.77;3.22;;;;;;;;;;5063974;28;20060;-56
2023/05/23 05:38:16;;;;;;;6.00;2.85;;;;;;;;;;5063916;28;20053;-56
2023/05/23 05:40:43;;;;;;;9.30;3.10;;;;;;;;;;5063415;28;20111;-58
2023/05/23 05:43:09;;;;;;;10.27;3.28;;;;;;;;;;5063492;28;20051;-56
2023/05/23 05:45:35;;;;;;;6.60;3.60;;;;;;;;;;5063522;28;20107;-56
2023/05/23 05:48:02;;;;;;;6.38;2.70;;;;;;;;;;5063711;28;20053;-55
2023/05/23 05:50:29;;;;;;;12.25;2.95;;;;;;;;;;5063408;28;20115;-57
2023/05/23 05:52:55;;;;;;;7.68;3.47;;;;;;;;;;5062602;28;20053;-57
2023/05/23 05:55:21;;;;;;;6.38;2.97;;;;;;;;;;5063784;28;20061;-56
2023/05/23 05:57:48;;;;;;;5.30;2.97;;;;;;;;;;5063442;28;20041;-57
2023/05/23 06:00:14;;;;;;;6.05;3.22;;;;;;;;;;5062454;28;20136;-57
2023/05/23 06:02:46;;;;;;;5.47;3.60;;;;;;;;;;5061766;28;20132;-58
2023/05/23 06:05:15;;;;;;;9.20;3.70;;;;;;;;;;5061908;28;20053;-54
2023/05/23 06:07:46;;;;;;;12.48;3.47;;;;;;;;;;5063169;28;20697;-58
2023/05/23 06:10:13;;;;;;;7.43;3.13;;;;;;;;;;5060888;28;20120;-57
2023/05/23 06:12:39;;;;;;;13.00;2.58;;;;;;;;;;5061874;28;20063;-54
2023/05/23 06:15:06;;;;;;;6.40;3.30;;;;;;;;;;5063203;28;20053;-55
2023/05/23 06:17:32;;;;;;;7.43;3.53;;;;;;;;;;5063610;28;20055;-55
2023/05/23 06:19:59;;;;;;;9.65;3.33;;;;;;;;;;5062885;28;20525;-53
2023/05/23 06:22:25;;;;;;;11.65;3.63;;;;;;;;;;5059857;28;20053;-58
2023/05/23 06:24:51;;;;;;;8.57;3.95;;;;;;;;;;5043364;28;20061;-57
2023/05/23 06:27:18;;;;;;;7.90;3.20;;;;;;;;;;5043277;28;20073;-55
2023/05/23 06:29:44;;;;;;;5.20;3.08;;;;;;;;;;5043453;28;20112;-57
2023/05/23 06:32:11;;;;;;;9.38;3.65;;;;;;;;;;5042740;28;20091;-57
2023/05/23 06:34:37;;;;;;;7.38;3.95;;;;;;;;;;5043657;28;20055;-57
2023/05/23 06:37:04;;;;;;;11.43;3.58;;;;;;;;;;5042620;28;20049;-56
2023/05/23 06:39:30;;;;;;;7.88;3.80;;;;;;;;;;5057224;28;20128;-58
2023/05/23 06:41:56;;;;;;;5.75;2.85;;;;;;;;;;5062506;28;20486;-56
2023/05/23 06:44:23;;;;;;;14.55;3.35;;;;;;;;;;5062742;28;20048;-56
2023/05/23 06:46:49;;;;;;;10.27;3.65;;;;;;;;;;5062577;28;20053;-55
2023/05/23 06:49:16;;;;;;;5.00;2.80;;;;;;;;;;5062407;28;20060;-56
2023/05/23 06:51:42;;;;;;;5.55;2.47;;;;;;;;;;5062970;28;20053;-59
2023/05/23 06:54:09;;;;;;;6.53;2.60;;;;;;;;;;5062494;28;20064;-54
2023/05/23 06:56:35;;;;;;;8.20;3.17;;;;;;;;;;5062639;28;20519;-57
2023/05/23 06:59:01;;;;;;;6.50;2.67;;;;;;;;;;5062313;28;20428;-57
2023/05/23 07:01:28;;;;;;;4.55;2.25;;;;;;;;;;5058833;28;20522;-57
2023/05/23 07:03:54;;;;;;;5.90;3.20;;;;;;;;;;5056277;28;20077;-55
2023/05/23 07:06:21;;;;;;;4.13;1.90;;;;;;;;;;5058695;28;20056;-54
2023/05/23 07:08:47;;;;;;;7.50;1.80;;;;;;;;;;5066458;28;20473;-56
2023/05/23 07:11:13;;;;;;;5.60;2.30;;;;;;;;;;5066004;28;20053;-57
2023/05/23 07:13:40;;;;;;;7.47;1.90;;;;;;;;;;5063059;28;20052;-57
2023/05/23 07:16:06;;;;;;;7.70;2.25;;;;;;;;;;5064482;28;20055;-57
2023/05/23 07:18:32;;;;;;;5.20;1.50;;;;;;;;;;5065799;28;20084;-56
2023/05/23 07:21:03;;;;;;;14.57;2.30;;;;;;;;;;5065947;28;20057;-57
2023/05/23 07:23:33;;;;;;;4.95;1.40;;;;;;;;;;5063226;28;20060;-58
2023/05/23 07:26:00;;;;;;;7.95;2.03;;;;;;;;;;5065252;28;20053;-56
2023/05/23 07:28:28;;;;;;;13.55;2.20;;;;;;;;;;5065692;28;20132;-58
2023/05/23 07:30:57;;;;;;;5.28;2.45;;;;;;;;;;5063305;28;21985;-57
2023/05/23 07:33:23;;;;;;;11.73;2.58;;;;;;;;;;5059857;28;20537;-57
2023/05/23 07:35:50;;;;;;;7.57;1.50;;;;;;;;;;5065438;28;20115;-57
2023/05/23 07:38:16;;;;;;;3.38;1.58;;;;;;;;;;5056387;28;20054;-58
2023/05/23 07:40:42;;;;;;;5.10;1.58;;;;;;;;;;5062238;28;20500;-57
2023/05/23 07:43:15;;;;;;;6.13;2.55;;;;;;;;;;5062767;28;20053;-58
2023/05/23 07:45:41;;;;;;;8.63;2.03;;;;;;;;;;5066122;28;20057;-52
2023/05/23 07:48:08;;;;;;;9.27;1.90;;;;;;;;;;5065727;28;20072;-56
2023/05/23 07:50:35;;;;;;;10.13;2.40;;;;;;;;;;5066138;28;20505;-57
2023/05/23 07:53:02;;;;;;;19.45;2.03;;;;;;;;;;5065637;28;20056;-52
2023/05/23 07:55:28;;;;;;;5.53;1.67;;;;;;;;;;5065892;28;20503;-53
2023/05/23 07:57:55;;;;;;;3.78;1.48;;;;;;;;;;5065455;28;20148;-57
2023/05/23 08:00:21;;;;;;;6.78;1.65;;;;;;;;;;5064012;28;20056;-57
2023/05/23 08:02:48;;;;;;;3.70;1.50;;;;;;;;;;5065334;28;20045;-58
2023/05/23 08:05:15;;;;;;;10.25;2.15;;;;;;;;;;5064654;28;20571;-56
2023/05/23 08:07:41;;;;;;;5.80;2.00;;;;;;;;;;5065468;28;20060;-57
2023/05/23 08:10:08;;;;;;;7.47;2.05;;;;;;;;;;5065149;28;20119;-57
2023/05/23 08:12:34;;;;;;;14.13;2.97;;;;;;;;;;5065249;28;20057;-56
2023/05/23 08:15:01;;;;;;;5.68;1.95;;;;;;;;;;5063781;28;20049;-55
2023/05/23 08:17:27;;;;;;;6.05;1.52;;;;;;;;;;5065441;28;20060;-56
2023/05/23 08:19:53;;;;;;;8.88;1.88;;;;;;;;;;5064020;28;20135;-57
2023/05/23 08:22:20;;;;;;;9.43;2.58;;;;;;;;;;5061470;28;20569;-54
2023/05/23 08:24:46;;;;;;;6.07;1.55;;;;;;;;;;5064957;28;20063;-57
2023/05/23 08:27:13;;;;;;;7.32;2.38;;;;;;;;;;5065638;28;20055;-54
2023/05/23 08:29:40;;;;;;;8.00;2.17;;;;;;;;;;5050947;28;20053;-55
2023/05/23 08:32:06;;;;;;;7.25;1.60;;;;;;;;;;5061016;28;20056;-54
2023/05/23 08:34:33;;;;;;;8.45;2.30;;;;;;;;;;5063376;28;20138;-55
2023/05/23 08:36:59;;;;;;;10.90;1.85;;;;;;;;;;5062146;28;20489;-53
2023/05/23 08:39:26;;;;;;;17.60;2.40;;;;;;;;;;5060734;28;20140;-54
2023/05/23 08:41:52;;;;;;;5.05;1.90;;;;;;;;;;5062094;28;20053;-55
2023/05/23 08:44:19;;;;;;;9.60;2.25;;;;;;;;;;5062363;28;20499;-52
2023/05/23 08:46:48;;;;;;;11.80;2.20;;;;;;;;;;5057435;28;20088;-53
2023/05/23 08:49:16;;;;;;;10.75;2.25;;;;;;;;;;5059139;28;20049;-52
2023/05/23 08:51:43;;;;;;;6.55;1.98;;;;;;;;;;5060220;28;20138;-52
2023/05/23 08:54:12;;;;;;;9.07;1.80;;;;;;;;;;5062865;28;20049;-54
2023/05/23 08:56:39;;;;;;;3.13;1.60;;;;;;;;;;5064659;28;20048;-55
2023/05/23 08:59:07;;;;;;;5.90;2.45;;;;;;;;;;5062484;28;20144;-57
2023/05/23 09:01:34;;;;;;;13.50;2.15;;;;;;;;;;5064359;28;20045;-53
2023/05/23 09:04:03;;;;;;;4.43;1.65;;;;;;;;;;5062134;28;20052;-55
2023/05/23 09:06:31;;;;;;;6.63;2.17;;;;;;;;;;5064481;28;20152;-55
2023/05/23 09:08:57;;;;;;;10.43;1.70;;;;;;;;;;5064810;28;20614;-57
2023/05/23 09:11:24;;;;;;;11.65;2.42;;;;;;;;;;5063729;28;20049;-52
2023/05/23 09:13:51;;;;;;;9.32;2.50;;;;;;;;;;5061708;28;20152;-52
2023/05/23 09:16:17;;;;;;;6.25;1.85;;;;;;;;;;5064049;28;20643;-56
2023/05/23 09:18:44;;;;;;;10.13;2.58;;;;;;;;;;5064062;28;20053;-54
2023/05/23 09:21:11;;;;;;;4.65;1.67;;;;;;;;;;5063796;28;20455;-56
2023/05/23 09:23:39;;;;;;;9.75;1.92;;;;;;;;;;5064169;28;20915;-57
2023/05/23 09:26:06;;;;;;;11.57;2.42;;;;;;;;;;5063325;28;20053;-56
2023/05/23 09:28:33;;;;;;;12.20;1.95;;;;;;;;;;5062742;28;20097;-53
2023/05/23 09:30:59;;;;;;;6.28;2.85;;;;;;;;;;5063810;28;20107;-54
2023/05/23 09:33:36;;;;;;;8.25;1.92;;;;;;;;;;5064554;28;20499;-56
2023/05/23 09:36:03;;;;;;;11.68;2.60;;;;;;;;;;5061618;28;20120;-57
2023/05/23 09:38:29;;;;;;;4.82;2.00;;;;;;;;;;5061363;28;20060;-54
2023/05/23 09:40:57;;;;;;;3.97;1.33;;;;;;;;;;5063822;28;20064;-55
2023/05/23 09:43:24;;;;;;;4.88;2.20;;;;;;;;;;5064311;28;20118;-55
2023/05/23 09:45:52;;;;;;;5.57;1.55;;;;;;;;;;5064142;28;20144;-56
2023/05/23 09:48:18;;;;;;;6.38;1.92;;;;;;;;;;5063595;28;20053;-54
2023/05/23 09:50:46;;;;;;;5.18;2.08;;;;;;;;;;5063775;28;20141;-54
2023/05/23 09:53:12;;;;;;;6.78;2.85;;;;;;;;;;5063681;28;20626;-55
2023/05/23 09:55:39;;;;;;;5.15;1.65;;;;;;;;;;5063966;28;20049;-56
2023/05/23 09:58:07;;;;;;;5.05;1.48;;;;;;;;;;5061937;28;20149;-54
2023/05/23 10:00:33;;;;;;;7.15;1.92;;;;;;;;;;5063999;28;20072;-58
2023/05/23 10:03:13;;;;;;;3.58;1.98;;;;;;;;;;5060729;28;20099;-57
2023/05/23 10:05:42;;;;;;;3.13;1.73;;;;;;;;;;5061919;28;20056;-55
2023/05/23 10:08:17;;;;;;;2.90;1.63;;;;;;;;;;5062922;28;20049;-57
2023/05/23 10:10:52;;;;;;;5.25;1.50;;;;;;;;;;5062836;28;20130;-57
2023/05/23 10:13:19;;;;;;;3.88;1.75;;;;;;;;;;5063977;28;20048;-58
2023/05/23 10:15:48;;;;;;;5.60;1.50;;;;;;;;;;5063140;28;20056;-58
2023/05/23 10:18:16;;;;;;;5.40;2.05;;;;;;;;;;5063721;28;20869;-55
2023/05/23 10:20:50;;;;;;;5.43;1.77;;;;;;;;;;5063564;28;20138;-58
2023/05/23 10:23:17;;;;;;;3.92;1.80;;;;;;;;;;5063435;28;20056;-55
2023/05/23 10:25:44;;;;;;;4.68;1.85;;;;;;;;;;5061209;28;20057;-58
2023/05/23 10:28:12;;;;;;;3.17;1.55;;;;;;;;;;5062874;28;20557;-54
2023/05/23 10:30:39;;;;;;;5.90;1.92;;;;;;;;;;5063291;28;20107;-56
2023/05/23 10:33:07;;;;;;;4.93;1.80;;;;;;;;;;5062147;28;20067;-57
2023/05/23 10:35:40;;;;;;;4.00;1.45;;;;;;;;;;5063520;28;20528;-57
2023/05/23 10:38:25;;;;;;;3.92;1.98;;;;;;;;;;5064045;28;20053;-58
2023/05/23 10:40:56;;;;;;;4.38;1.42;;;;;;;;;;5066112;28;20571;-57
2023/05/23 10:43:35;;;;;;;6.68;1.65;;;;;;;;;;5067317;28;20095;-58
2023/05/23 10:46:02;;;;;;;6.43;1.67;;;;;;;;;;5066437;28;20053;-55
2023/05/23 10:48:28;;;;;;;7.13;1.70;;;;;;;;;;5052341;28;20132;-58
2023/05/23 10:51:07;;;;;;;4.43;1.73;;;;;;;;;;5062506;28;20057;-58
2023/05/23 10:53:38;;;;;;;8.80;2.22;;;;;;;;;;5059149;28;20499;-55
2023/05/23 10:56:08;;;;;;;3.88;1.58;;;;;;;;;;5065169;28;20057;-58
2023/05/23 10:58:35;;;;;;;8.93;2.00;;;;;;;;;;5064841;28;20049;-58
2023/05/23 11:01:04;;;;;;;7.25;1.75;;;;;;;;;;5066739;28;20801;-57
2023/05/23 11:03:32;;;;;;;8.35;1.88;;;;;;;;;;5065587;28;20550;-58
2023/05/23 11:05:59;;;;;;;5.13;1.90;;;;;;;;;;5066359;28;20538;-58
2023/05/23 11:08:26;;;;;;;4.57;1.67;;;;;;;;;;5065056;28;20061;-57
2023/05/23 11:11:12;;;;;;;7.20;2.50;;;;;;;;;;5066317;28;20083;-59
2023/05/23 11:14:01;;;;;;;6.53;1.13;;;;;;;;;;5066287;28;20589;-58
2023/05/23 11:16:28;;;;;;;5.57;1.52;;;;;;;;;;5066232;28;20428;-58
2023/05/23 11:19:13;;;;;;;4.35;1.45;;;;;;;;;;5060771;28;22290;-56
2023/05/23 11:21:40;;;;;;;4.85;1.50;;;;;;;;;;5066360;28;20598;-58
2023/05/23 11:24:08;;;;;;;5.57;2.00;;;;;;;;;;5065722;28;20041;-57
2023/05/23 11:26:34;;;;;;;6.22;2.28;;;;;;;;;;5064731;28;20057;-57
2023/05/23 11:29:02;;;;;;;6.93;1.90;;;;;;;;;;5054811;28;20132;-56
2023/05/23 11:31:29;;;;;;;3.47;1.45;;;;;;;;;;5059341;28;20057;-59
2023/05/23 11:33:55;;;;;;;3.47;1.42;;;;;;;;;;5066058;28;20061;-58
2023/05/23 11:36:22;;;;;;;4.25;1.60;;;;;;;;;;5065557;28;20044;-57
2023/05/23 11:38:51;;;;;;;6.65;1.70;;;;;;;;;;5065846;28;20127;-56
2023/05/23 11:41:18;;;;;;;2.03;1.13;;;;;;;;;;5064920;28;20053;-57
2023/05/23 11:43:50;;;;;;;5.80;1.30;;;;;;;;;;5064016;28;20056;-57
2023/05/23 11:46:17;;;;;;;5.63;1.60;;;;;;;;;;5065108;28;20053;-57
2023/05/23 11:48:44;;;;;;;2.30;1.13;;;;;;;;;;5066120;28;20053;-57
2023/05/23 11:51:11;;;;;;;2.67;1.20;;;;;;;;;;5064089;28;20049;-56
2023/05/23 11:53:37;;;;;;;3.83;1.75;;;;;;;;;;5051635;28;20057;-59
2023/05/23 11:56:03;;;;;;;4.22;1.33;;;;;;;;;;5045158;28;20597;-57
2023/05/23 11:58:33;;;;;;;4.90;1.30;;;;;;;;;;5045345;28;20108;-57
2023/05/23 12:00:59;;;;;;;3.47;1.20;;;;;;;;;;5063027;28;20063;-57
2023/05/23 12:03:26;;;;;;;3.70;1.38;;;;;;;;;;5065553;28;20119;-56
2023/05/23 12:05:56;;;;;;;2.15;0.95;;;;;;;;;;5065670;28;20588;-54
2023/05/23 12:08:24;;;;;;;3.90;1.33;;;;;;;;;;5063964;28;20057;-58
2023/05/23 12:10:51;;;;;;;3.53;1.10;;;;;;;;;;5048428;28;20061;-56
2023/05/23 12:13:18;;;;;;;4.85;1.17;;;;;;;;;;5058749;28;20053;-58
2023/05/23 12:15:46;;;;;;;6.43;1.75;;;;;;;;;;5061565;28;20507;-55
2023/05/23 12:18:14;;;;;;;3.30;1.48;;;;;;;;;;5065325;28;20053;-56
2023/05/23 12:20:41;;;;;;;4.00;1.40;;;;;;;;;;5065259;28;20059;-56
2023/05/23 12:23:08;;;;;;;3.25;1.15;;;;;;;;;;5063766;28;20053;-55
2023/05/23 12:25:40;;;;;;;6.20;1.65;;;;;;;;;;5047836;28;20096;-57
2023/05/23 12:28:09;;;;;;;5.03;1.40;;;;;;;;;;5045113;28;20601;-57
2023/05/23 12:30:42;;;;;;;3.50;1.50;;;;;;;;;;5060865;28;20084;-57
2023/05/23 12:33:09;;;;;;;4.60;1.25;;;;;;;;;;5062620;28;20057;-56
2023/05/23 12:35:35;;;;;;;1.75;1.15;;;;;;;;;;5064480;28;20475;-57
2023/05/23 12:38:05;;;;;;;2.70;1.30;;;;;;;;;;5064766;28;20053;-55
2023/05/23 12:40:32;;;;;;;6.82;1.95;;;;;;;;;;5055159;28;20488;-57
2023/05/23 12:42:58;;;;;;;4.30;1.25;;;;;;;;;;5044356;28;20535;-56
2023/05/23 12:45:35;;;;;;;2.95;1.60;;;;;;;;;;5055683;28;20052;-57
2023/05/23 12:48:02;;;;;;;6.05;2.28;;;;;;;;;;5064733;28;20061;-57
2023/05/23 12:50:29;;;;;;;4.93;1.60;;;;;;;;;;5064612;28;20045;-57
2023/05/23 12:52:56;;;;;;;3.10;1.15;;;;;;;;;;5064781;28;20061;-56
2023/05/23 12:55:22;;;;;;;3.63;1.70;;;;;;;;;;5056914;28;20053;-57
2023/05/23 12:57:49;;;;;;;4.35;1.48;;;;;;;;;;5044151;28;20064;-58
2023/05/23 13:00:16;;;;;;;6.72;1.33;;;;;;;;;;5047266;28;20150;-53
2023/05/23 13:02:42;;;;;;;5.05;1.60;;;;;;;;;;5064358;28;20049;-55
2023/05/23 13:05:09;;;;;;;3.22;1.10;;;;;;;;;;5064586;28;20138;-57
2023/05/23 13:07:36;;;;;;;4.10;1.38;;;;;;;;;;5064070;28;20098;-58
2023/05/23 13:10:03;;;;;;;6.38;1.20;;;;;;;;;;5066184;28;20061;-58
2023/05/23 13:12:30;;;;;;;4.57;1.50;;;;;;;;;;5066347;28;20052;-54
2023/05/23 13:14:57;;;;;;;2.72;1.08;;;;;;;;;;5064798;28;20056;-56
2023/05/23 13:17:23;;;;;;;8.30;1.85;;;;;;;;;;5063981;28;20059;-57
2023/05/23 13:19:50;;;;;;;4.13;1.50;;;;;;;;;;5062470;28;20132;-58
2023/05/23 13:22:16;;;;;;;2.38;1.38;;;;;;;;;;5062736;28;20084;-57
2023/05/23 13:24:43;;;;;;;4.15;1.92;;;;;;;;;;5063575;28;20130;-58
2023/05/23 13:27:09;;;;;;;4.10;1.20;;;;;;;;;;5063023;28;20060;-56
2023/05/23 13:29:36;;;;;;;3.90;2.10;;;;;;;;;;5063854;28;20045;-55
2023/05/23 13:32:02;;;;;;;5.78;1.75;;;;;;;;;;5062474;28;20076;-57
2023/05/23 13:34:28;;;;;;;5.85;1.70;;;;;;;;;;5056919;28;20505;-55
2023/05/23 13:36:55;;;;;;;4.53;1.52;;;;;;;;;;5063966;28;20053;-56
2023/05/23 13:39:21;;;;;;;6.55;1.92;;;;;;;;;;5062407;28;20151;-57
2023/05/23 13:41:48;;;;;;;4.68;1.33;;;;;;;;;;5063545;28;20061;-57
2023/05/23 13:44:15;;;;;;;7.15;1.33;;;;;;;;;;5062862;28;20060;-58
2023/05/23 13:46:42;;;;;;;3.65;1.17;;;;;;;;;;5063142;28;20056;-54
2023/05/23 13:49:08;;;;;;;5.57;1.58;;;;;;;;;;5063060;28;20557;-58
2023/05/23 13:51:36;;;;;;;2.42;0.88;;;;;;;;;;5058475;28;20053;-57
2023/05/23 13:54:03;;;;;;;6.93;1.70;;;;;;;;;;5043584;28;20602;-54
2023/05/23 13:56:29;;;;;;;4.70;1.55;;;;;;;;;;5044024;28;20053;-58
2023/05/23 13:58:55;;;;;;;8.63;1.30;;;;;;;;;;5044029;28;20104;-58
2023/05/23 14:01:23;;;;;;;1.70;0.90;;;;;;;;;;5043427;28;20782;-56
2023/05/23 14:03:49;;;;;;;3.40;1.35;;;;;;;;;;5063470;28;20581;-58
2023/05/23 14:06:16;;;;;;;3.92;1.20;;;;;;;;;;5063251;28;20508;-55
2023/05/23 14:08:42;;;;;;;3.30;1.15;;;;;;;;;;5057072;28;20049;-56
2023/05/23 14:11:09;;;;;;;4.95;1.52;;;;;;;;;;5042848;28;20168;-57
2023/05/23 14:13:36;;;;;;;4.82;1.63;;;;;;;;;;5042316;28;20493;-58
2023/05/23 14:16:02;;;;;;;2.92;1.55;;;;;;;;;;5043098;28;20610;-58
2023/05/23 14:18:29;;;;;;;5.53;1.50;;;;;;;;;;5043522;28;20056;-58
2023/05/23 14:20:55;;;;;;;4.68;1.45;;;;;;;;;;5043525;28;20053;-56
2023/05/23 14:23:21;;;;;;;3.33;1.33;;;;;;;;;;5043938;28;20458;-53
2023/05/23 14:25:48;;;;;;;2.88;1.20;;;;;;;;;;5044348;28;20057;-53
2023/05/23 14:28:14;;;;;;;4.63;1.40;;;;;;;;;;5043659;28;20550;-57
2023/05/23 14:30:41;;;;;;;3.30;1.30;;;;;;;;;;5043342;28;20058;-52
2023/05/23 14:33:08;;;;;;;8.07;2.30;;;;;;;;;;5042706;28;20054;-58
2023/05/23 14:35:38;;;;;;;9.73;2.88;;;;;;;;;;5042543;28;20655;-57
2023/05/23 14:38:05;;;;;;;4.32;2.85;;;;;;;;;;5045100;28;20083;-53
2023/05/23 14:40:31;;;;;;;4.05;1.45;;;;;;;;;;5062861;28;20061;-57
2023/05/23 14:42:57;;;;;;;4.18;1.65;;;;;;;;;;5054505;28;20133;-54